KOCF/OCF METAR and TAF weather

Enter ICAO airport designator
Station Type Date Time Source
KOCF METAR 2022/01/29 12:51 UTC NOAA

KOCF 291251Z 30007KT 10SM CLR 03/M06 A3016 RMK AO2 SLP215 T00331056 $


Station Type Date Time Source
KOCF Decoded METAR 2022/01/29 12:51 UTC NOAA

Ocala, Ocala International Airport-Jim Taylor Field, FL, United States (KOCF) 29-10N 082-13W
Jan 29, 2022 - 07:51 AM EST / 2022.01.29 1251 UTC
Wind: from the WNW (300 degrees) at 8 MPH (7 KT):0
Visibility: 10 mile(s):0
Sky conditions: clear
Temperature: 37.9 F (3.3 C)
Dew Point: 21.9 F (-5.6 C)
Relative Humidity: 52%
Pressure (altimeter): 30.16 in. Hg (1021 hPa)
ob: KOCF 291251Z 30007KT 10SM CLR 03/M06 A3016 RMK AO2 SLP215 T00331056
cycle: 13

Station Type Date Time Source
KOCF TAF UTC NOAA

Error!

Example: see airport list